Plymouth, North Carolina
Current Conditions -  °F | °C
As of 12:55 PM on Saturday 20 Dec 2014 (Local Time) from KEDE Reporting Station
Scattered Clouds Scattered Clouds  
Wind Chill: 36°   Ceiling: Unl
Heat Index: 40°   Visibility: 10mi
Dew Point: 32°   Wind: 6mph
Humidity: 72%   Direction: 20°NNE
Pressure: 30.27"   Gusts: NA
Location:  35.87°N, 76.75°W
Report Text: KEDE 201755Z AUTO 02005KT 10SM SCT085 SCT095 05/00 A3027 RMK AO2 T00460000 10048 20005
Loading
Personal Weather Stations






























Interactive Weather Map New forecast layout! Learn more

10-Day Weather Forecast

Advertisements
Track Severe Weather on mobile